createdAt,value
2022-09-29T00:01:46.306Z,21.63
2022-09-29T00:08:58.846Z,21.73
2022-09-29T00:15:28.790Z,21.93
2022-09-29T00:21:58.784Z,22.06
2022-09-29T00:28:33.273Z,22.12
2022-09-29T00:34:59.659Z,22.08
2022-09-29T00:41:29.312Z,22.07
2022-09-29T00:48:12.882Z,22.11
2022-09-29T00:55:20.018Z,22.16
2022-09-29T01:02:22.070Z,22.25
2022-09-29T01:09:11.752Z,22.17
2022-09-29T01:15:47.890Z,22.16
2022-09-29T01:22:33.190Z,22.12
2022-09-29T01:29:45.065Z,22.1
2022-09-29T01:36:44.958Z,22.07
2022-09-29T01:43:57.817Z,21.97
2022-09-29T01:51:01.142Z,21.98
2022-09-29T01:58:08.803Z,21.97
2022-09-29T02:05:21.206Z,21.97
2022-09-29T02:12:26.806Z,21.91
2022-09-29T02:19:23.066Z,22.06
2022-09-29T02:25:53.411Z,22.09
2022-09-29T02:32:28.286Z,22.11
2022-09-29T02:39:37.869Z,22.12
2022-09-29T02:46:41.875Z,22.05
2022-09-29T02:53:55.186Z,22.06
2022-09-29T03:01:09.489Z,22.05
2022-09-29T03:07:47.918Z,22.11
2022-09-29T03:14:25.009Z,22.07
2022-09-29T03:20:52.866Z,22.07
2022-09-29T03:27:23.996Z,22.05
2022-09-29T03:34:00.316Z,22.11
2022-09-29T03:40:32.114Z,22.07
2022-09-29T03:47:01.860Z,22.04
2022-09-29T03:53:35.123Z,22.05
2022-09-29T04:00:03.279Z,21.93
2022-09-29T04:06:33.266Z,21.9
2022-09-29T04:13:08.250Z,21.94
2022-09-29T04:19:40.930Z,21.94
2022-09-29T04:26:23.899Z,21.98
2022-09-29T04:32:56.261Z,21.98
2022-09-29T04:39:27.929Z,21.97
2022-09-29T04:46:05.207Z,21.98
2022-09-29T04:52:41.859Z,21.96
2022-09-29T04:59:14.879Z,21.95
2022-09-29T05:05:46.868Z,21.9
2022-09-29T05:12:26.341Z,21.92
2022-09-29T05:18:53.355Z,21.98
2022-09-29T05:25:30.342Z,21.96
2022-09-29T05:32:03.040Z,22.02
2022-09-29T05:38:33.563Z,21.98
2022-09-29T05:45:00.143Z,21.96
2022-09-29T05:51:36.837Z,21.96
2022-09-29T05:58:16.383Z,21.99
2022-09-29T06:04:48.165Z,21.95
2022-09-29T06:11:18.905Z,22.11
2022-09-29T06:17:52.015Z,22.74
2022-09-29T06:24:31.811Z,22.83
2022-09-29T06:31:09.026Z,22.87
2022-09-29T06:37:35.895Z,22.81
2022-09-29T06:44:15.015Z,22.84
2022-09-29T06:50:41.008Z,22.74
2022-09-29T06:57:14.958Z,22.68
2022-09-29T07:03:49.551Z,22.63
2022-09-29T07:10:20.969Z,22.61
2022-09-29T07:16:56.980Z,22.54
2022-09-29T07:23:49.161Z,22.52
2022-09-29T07:30:19.716Z,22.53
2022-09-29T07:37:11.035Z,22.52
2022-09-29T07:43:50.924Z,22.52
2022-09-29T07:50:23.953Z,22.46
2022-09-29T07:56:58.996Z,22.47
2022-09-29T08:03:26.505Z,22.45
2022-09-29T08:09:51.776Z,22.39
2022-09-29T08:16:21.587Z,22.31
2022-09-29T08:22:48.088Z,22.21
2022-09-29T08:29:43.671Z,22.22
2022-09-29T08:36:20.104Z,22.27
2022-09-29T08:42:55.039Z,22.26
2022-09-29T08:50:01.640Z,22.21
2022-09-29T08:57:02.012Z,22.2
2022-09-29T09:03:46.906Z,22.16
2022-09-29T09:10:58.979Z,22.15
2022-09-29T09:18:03.986Z,22.12
2022-09-29T09:25:02.209Z,22.1
2022-09-29T09:32:04.029Z,22.13
2022-09-29T09:39:19.153Z,22.18
2022-09-29T09:46:28.834Z,22.11
2022-09-29T09:53:38.451Z,22.09
2022-09-29T10:00:39.012Z,22.11
2022-09-29T10:07:26.601Z,22.09
2022-09-29T10:14:13.294Z,22.16
2022-09-29T10:21:11.827Z,22.1
2022-09-29T10:28:02.046Z,22.07
2022-09-29T10:34:44.917Z,22.05
2022-09-29T10:41:54.277Z,22.07
2022-09-29T10:48:42.330Z,22.05
2022-09-29T10:55:37.585Z,22.15
2022-09-29T11:02:42.100Z,22.24
2022-09-29T11:09:32.503Z,22.17
2022-09-29T11:16:29.080Z,22.22
2022-09-29T11:23:35.316Z,22.2
2022-09-29T11:30:42.096Z,22.19
2022-09-29T11:37:57.132Z,22.19
2022-09-29T11:45:05.251Z,22.17
2022-09-29T11:52:02.050Z,22.17
2022-09-29T11:59:08.440Z,22.25
2022-09-29T12:06:18.486Z,22.29
2022-09-29T12:13:34.052Z,22.23
2022-09-29T12:20:40.111Z,22.35
2022-09-29T12:27:34.615Z,22.31
2022-09-29T12:34:48.057Z,22.39
2022-09-29T12:42:07.435Z,22.36
2022-09-29T12:49:19.108Z,22.37
2022-09-29T12:56:37.314Z,22.43
2022-09-29T13:03:35.897Z,22.41
2022-09-29T13:10:35.196Z,22.29
2022-09-29T13:17:31.317Z,22.34
2022-09-29T13:24:29.693Z,22.33
2022-09-29T13:31:20.722Z,22.4
2022-09-29T13:38:07.489Z,22.43
2022-09-29T13:45:04.225Z,22.34
2022-09-29T13:51:59.908Z,22.33
2022-09-29T13:58:37.259Z,22.24
2022-09-29T14:05:46.193Z,22.35
2022-09-29T14:13:30.338Z,22.36
2022-09-29T14:20:54.366Z,22.4
2022-09-29T14:27:48.676Z,22.25
2022-09-29T14:34:39.074Z,22.28
2022-09-29T14:41:26.132Z,22.3
2022-09-29T14:48:23.089Z,22.29
2022-09-29T14:55:47.081Z,22.2
2022-09-29T15:02:52.387Z,22.24
2022-09-29T15:09:53.247Z,22.24
2022-09-29T15:16:56.295Z,22.23
2022-09-29T15:24:04.163Z,22.47
2022-09-29T15:30:54.059Z,22.52
2022-09-29T15:37:47.031Z,22.53
2022-09-29T15:44:41.632Z,22.53
2022-09-29T15:51:35.347Z,22.53
2022-09-29T15:58:19.523Z,22.49
2022-09-29T16:05:08.595Z,22.34
2022-09-29T16:12:10.474Z,22.49
2022-09-29T16:19:02.237Z,22.45
2022-09-29T16:25:54.280Z,22.45
2022-09-29T16:32:59.226Z,22.37
2022-09-29T16:39:46.193Z,22.39
2022-09-29T16:46:31.402Z,22.39
2022-09-29T16:53:31.211Z,22.35
2022-09-29T17:00:31.604Z,22.37
2022-09-29T17:07:05.341Z,22.32
2022-09-29T17:13:54.761Z,22.31
2022-09-29T17:20:29.766Z,22.3
2022-09-29T17:27:19.354Z,22.27
2022-09-29T17:33:54.128Z,22.24
2022-09-29T17:40:19.158Z,22.24
2022-09-29T17:46:54.664Z,22.18
2022-09-29T17:53:49.875Z,22.18
2022-09-29T18:00:24.016Z,22.18
2022-09-29T18:07:01.210Z,22.15
2022-09-29T18:13:57.791Z,22.11
2022-09-29T18:20:30.265Z,22.12
2022-09-29T18:27:00.285Z,22.12
2022-09-29T18:33:38.217Z,22.08
2022-09-29T18:40:07.500Z,22.07
2022-09-29T18:46:39.323Z,22.08
2022-09-29T18:53:16.919Z,22.07
2022-09-29T18:59:51.193Z,22.02
2022-09-29T19:06:42.228Z,22.07
2022-09-29T19:13:28.337Z,22.07
2022-09-29T19:19:53.667Z,22.04
2022-09-29T19:26:19.200Z,22.05
2022-09-29T19:32:53.794Z,22.04
2022-09-29T19:39:29.460Z,22.03
2022-09-29T19:46:12.298Z,21.95
2022-09-29T19:52:57.565Z,21.96
2022-09-29T19:59:27.262Z,21.98
2022-09-29T20:06:01.404Z,21.98
2022-09-29T20:12:30.270Z,21.97
2022-09-29T20:18:57.912Z,21.92
2022-09-29T20:25:36.349Z,21.94
2022-09-29T20:32:03.470Z,22
2022-09-29T20:38:31.698Z,21.96
2022-09-29T20:45:07.684Z,21.99
2022-09-29T20:51:37.219Z,21.94
2022-09-29T20:58:06.414Z,21.93
2022-09-29T21:04:42.647Z,22
2022-09-29T21:11:12.923Z,22.04
2022-09-29T21:17:40.362Z,22
2022-09-29T21:24:10.287Z,21.88
2022-09-29T21:30:46.797Z,22.01
2022-09-29T21:37:25.647Z,21.98
2022-09-29T21:44:03.292Z,21.94
2022-09-29T21:50:45.446Z,21.95
2022-09-29T21:57:28.799Z,21.92
2022-09-29T22:03:51.392Z,21.91
2022-09-29T22:10:23.019Z,21.93
2022-09-29T22:17:04.445Z,21.84
2022-09-29T22:23:32.957Z,21.9
2022-09-29T22:30:01.442Z,21.89
2022-09-29T22:36:35.336Z,21.91
2022-09-29T22:43:08.691Z,21.92
2022-09-29T22:49:35.526Z,21.89
2022-09-29T22:56:11.466Z,21.9
2022-09-29T23:02:42.350Z,21.86
2022-09-29T23:09:14.928Z,21.88
2022-09-29T23:15:47.642Z,21.88
2022-09-29T23:22:33.535Z,21.87
2022-09-29T23:29:04.586Z,21.82
2022-09-29T23:35:37.842Z,21.9
2022-09-29T23:42:10.424Z,21.81
2022-09-29T23:48:44.377Z,21.84
2022-09-29T23:55:19.886Z,21.82
